sensor_id;sensor_type;location;lat;lon;timestamp;P1;durP1;ratioP1;P2;durP2;ratioP2
33862;SDS011;20158;51.436;-2.742;2023-05-19T00:01:39;4.72;;;2.00;;
33862;SDS011;20158;51.436;-2.742;2023-05-19T00:04:08;5.82;;;2.40;;
33862;SDS011;20158;51.436;-2.742;2023-05-19T00:06:36;4.28;;;2.00;;
33862;SDS011;20158;51.436;-2.742;2023-05-19T00:09:06;4.38;;;1.90;;
33862;SDS011;20158;51.436;-2.742;2023-05-19T00:11:33;3.50;;;1.67;;
33862;SDS011;20158;51.436;-2.742;2023-05-19T00:14:01;5.22;;;2.35;;
33862;SDS011;20158;51.436;-2.742;2023-05-19T00:16:29;3.20;;;2.28;;
33862;SDS011;20158;51.436;-2.742;2023-05-19T00:18:56;4.32;;;2.20;;
33862;SDS011;20158;51.436;-2.742;2023-05-19T00:21:24;3.83;;;2.03;;
33862;SDS011;20158;51.436;-2.742;2023-05-19T00:23:50;4.10;;;2.15;;
33862;SDS011;20158;51.436;-2.742;2023-05-19T00:26:16;4.25;;;2.00;;
33862;SDS011;20158;51.436;-2.742;2023-05-19T00:28:52;3.10;;;1.83;;
33862;SDS011;20158;51.436;-2.742;2023-05-19T00:31:19;5.25;;;2.55;;
33862;SDS011;20158;51.436;-2.742;2023-05-19T00:33:45;7.25;;;2.17;;
33862;SDS011;20158;51.436;-2.742;2023-05-19T00:36:11;3.80;;;2.00;;
33862;SDS011;20158;51.436;-2.742;2023-05-19T00:38:37;4.05;;;2.30;;
33862;SDS011;20158;51.436;-2.742;2023-05-19T00:41:04;4.78;;;2.53;;
33862;SDS011;20158;51.436;-2.742;2023-05-19T00:43:31;4.07;;;2.22;;
33862;SDS011;20158;51.436;-2.742;2023-05-19T00:46:00;5.25;;;2.35;;
33862;SDS011;20158;51.436;-2.742;2023-05-19T00:48:26;4.25;;;1.70;;
33862;SDS011;20158;51.436;-2.742;2023-05-19T00:50:53;2.67;;;1.80;;
33862;SDS011;20158;51.436;-2.742;2023-05-19T00:53:26;3.47;;;2.13;;
33862;SDS011;20158;51.436;-2.742;2023-05-19T00:55:53;5.15;;;2.78;;
33862;SDS011;20158;51.436;-2.742;2023-05-19T00:58:19;3.75;;;2.40;;
33862;SDS011;20158;51.436;-2.742;2023-05-19T01:00:45;4.43;;;1.80;;
33862;SDS011;20158;51.436;-2.742;2023-05-19T01:03:11;3.95;;;2.15;;
33862;SDS011;20158;51.436;-2.742;2023-05-19T01:05:41;3.85;;;2.53;;
33862;SDS011;20158;51.436;-2.742;2023-05-19T01:08:10;2.92;;;1.80;;
33862;SDS011;20158;51.436;-2.742;2023-05-19T01:10:36;3.28;;;1.65;;
33862;SDS011;20158;51.436;-2.742;2023-05-19T01:13:03;3.40;;;2.35;;
33862;SDS011;20158;51.436;-2.742;2023-05-19T01:29:40;3.83;;;2.30;;
33862;SDS011;20158;51.436;-2.742;2023-05-19T01:32:10;4.78;;;1.95;;
33862;SDS011;20158;51.436;-2.742;2023-05-19T01:34:39;3.92;;;1.90;;
33862;SDS011;20158;51.436;-2.742;2023-05-19T01:37:08;4.60;;;2.03;;
33862;SDS011;20158;51.436;-2.742;2023-05-19T01:39:35;4.38;;;2.78;;
33862;SDS011;20158;51.436;-2.742;2023-05-19T01:42:02;4.18;;;2.35;;
33862;SDS011;20158;51.436;-2.742;2023-05-19T01:44:29;3.72;;;2.20;;
33862;SDS011;20158;51.436;-2.742;2023-05-19T01:46:57;3.83;;;2.10;;
33862;SDS011;20158;51.436;-2.742;2023-05-19T01:49:23;4.93;;;2.20;;
33862;SDS011;20158;51.436;-2.742;2023-05-19T01:51:49;4.35;;;2.22;;
33862;SDS011;20158;51.436;-2.742;2023-05-19T01:54:15;3.22;;;2.00;;
33862;SDS011;20158;51.436;-2.742;2023-05-19T01:56:51;4.00;;;2.20;;
33862;SDS011;20158;51.436;-2.742;2023-05-19T01:59:56;4.03;;;2.45;;
33862;SDS011;20158;51.436;-2.742;2023-05-19T02:05:21;2.58;;;1.88;;
33862;SDS011;20158;51.436;-2.742;2023-05-19T02:08:12;3.88;;;2.33;;
33862;SDS011;20158;51.436;-2.742;2023-05-19T02:10:44;3.75;;;2.38;;
33862;SDS011;20158;51.436;-2.742;2023-05-19T02:15:45;3.97;;;2.70;;
33862;SDS011;20158;51.436;-2.742;2023-05-19T02:18:13;4.68;;;2.53;;
33862;SDS011;20158;51.436;-2.742;2023-05-19T02:20:42;3.28;;;2.30;;
33862;SDS011;20158;51.436;-2.742;2023-05-19T02:23:09;5.88;;;2.50;;
33862;SDS011;20158;51.436;-2.742;2023-05-19T02:25:34;4.30;;;2.60;;
33862;SDS011;20158;51.436;-2.742;2023-05-19T02:28:01;4.85;;;2.63;;
33862;SDS011;20158;51.436;-2.742;2023-05-19T02:30:28;4.07;;;2.50;;
33862;SDS011;20158;51.436;-2.742;2023-05-19T02:32:58;4.30;;;2.83;;
33862;SDS011;20158;51.436;-2.742;2023-05-19T02:35:24;4.93;;;2.85;;
33862;SDS011;20158;51.436;-2.742;2023-05-19T02:37:50;3.40;;;2.67;;
33862;SDS011;20158;51.436;-2.742;2023-05-19T02:40:16;3.67;;;2.60;;
33862;SDS011;20158;51.436;-2.742;2023-05-19T02:42:42;4.63;;;2.58;;
33862;SDS011;20158;51.436;-2.742;2023-05-19T02:45:08;3.80;;;2.28;;
33862;SDS011;20158;51.436;-2.742;2023-05-19T02:47:37;4.68;;;2.88;;
33862;SDS011;20158;51.436;-2.742;2023-05-19T02:50:05;3.80;;;2.92;;
33862;SDS011;20158;51.436;-2.742;2023-05-19T02:52:31;3.97;;;2.67;;
33862;SDS011;20158;51.436;-2.742;2023-05-19T02:54:57;4.15;;;3.25;;
33862;SDS011;20158;51.436;-2.742;2023-05-19T02:57:23;2.97;;;2.47;;
33862;SDS011;20158;51.436;-2.742;2023-05-19T02:59:50;3.85;;;2.70;;
33862;SDS011;20158;51.436;-2.742;2023-05-19T03:02:17;4.45;;;2.78;;
33862;SDS011;20158;51.436;-2.742;2023-05-19T03:04:43;3.67;;;2.67;;
33862;SDS011;20158;51.436;-2.742;2023-05-19T03:07:10;3.13;;;2.50;;
33862;SDS011;20158;51.436;-2.742;2023-05-19T03:09:37;3.90;;;2.63;;
33862;SDS011;20158;51.436;-2.742;2023-05-19T03:12:03;5.35;;;3.05;;
33862;SDS011;20158;51.436;-2.742;2023-05-19T03:14:32;4.40;;;3.00;;
33862;SDS011;20158;51.436;-2.742;2023-05-19T03:16:59;3.17;;;2.55;;
33862;SDS011;20158;51.436;-2.742;2023-05-19T03:19:25;3.75;;;3.35;;
33862;SDS011;20158;51.436;-2.742;2023-05-19T03:21:51;4.82;;;2.72;;
33862;SDS011;20158;51.436;-2.742;2023-05-19T03:24:20;3.38;;;2.90;;
33862;SDS011;20158;51.436;-2.742;2023-05-19T03:26:46;4.78;;;2.95;;
33862;SDS011;20158;51.436;-2.742;2023-05-19T03:29:12;5.43;;;2.90;;
33862;SDS011;20158;51.436;-2.742;2023-05-19T03:31:38;4.53;;;2.60;;
33862;SDS011;20158;51.436;-2.742;2023-05-19T03:34:04;4.35;;;3.10;;
33862;SDS011;20158;51.436;-2.742;2023-05-19T03:36:30;4.68;;;2.88;;
33862;SDS011;20158;51.436;-2.742;2023-05-19T03:38:59;4.80;;;2.97;;
33862;SDS011;20158;51.436;-2.742;2023-05-19T03:41:25;6.13;;;3.00;;
33862;SDS011;20158;51.436;-2.742;2023-05-19T03:43:51;4.10;;;2.70;;
33862;SDS011;20158;51.436;-2.742;2023-05-19T03:46:17;3.08;;;2.78;;
33862;SDS011;20158;51.436;-2.742;2023-05-19T03:49:01;4.57;;;3.30;;
33862;SDS011;20158;51.436;-2.742;2023-05-19T03:51:38;4.93;;;2.90;;
33862;SDS011;20158;51.436;-2.742;2023-05-19T03:54:17;4.07;;;3.33;;
33862;SDS011;20158;51.436;-2.742;2023-05-19T03:56:45;3.40;;;3.00;;
33862;SDS011;20158;51.436;-2.742;2023-05-19T03:59:11;3.50;;;2.90;;
33862;SDS011;20158;51.436;-2.742;2023-05-19T04:01:37;3.72;;;3.28;;
33862;SDS011;20158;51.436;-2.742;2023-05-19T04:04:03;4.63;;;3.28;;
33862;SDS011;20158;51.436;-2.742;2023-05-19T04:06:29;5.88;;;3.33;;
33862;SDS011;20158;51.436;-2.742;2023-05-19T04:08:55;4.13;;;2.90;;
33862;SDS011;20158;51.436;-2.742;2023-05-19T04:11:21;3.35;;;3.00;;
33862;SDS011;20158;51.436;-2.742;2023-05-19T04:13:47;5.40;;;3.25;;
33862;SDS011;20158;51.436;-2.742;2023-05-19T04:16:13;4.35;;;3.70;;
33862;SDS011;20158;51.436;-2.742;2023-05-19T04:18:40;3.83;;;3.50;;
33862;SDS011;20158;51.436;-2.742;2023-05-19T04:21:06;4.32;;;3.92;;
33862;SDS011;20158;51.436;-2.742;2023-05-19T04:23:32;3.92;;;3.53;;
33862;SDS011;20158;51.436;-2.742;2023-05-19T04:25:59;4.82;;;3.40;;
33862;SDS011;20158;51.436;-2.742;2023-05-19T04:28:26;3.70;;;3.40;;
33862;SDS011;20158;51.436;-2.742;2023-05-19T04:30:52;6.53;;;3.72;;
33862;SDS011;20158;51.436;-2.742;2023-05-19T04:33:18;4.55;;;3.88;;
33862;SDS011;20158;51.436;-2.742;2023-05-19T04:35:44;5.13;;;3.58;;
33862;SDS011;20158;51.436;-2.742;2023-05-19T04:38:11;4.68;;;3.83;;
33862;SDS011;20158;51.436;-2.742;2023-05-19T04:40:39;5.07;;;3.28;;
33862;SDS011;20158;51.436;-2.742;2023-05-19T04:43:06;4.30;;;3.53;;
33862;SDS011;20158;51.436;-2.742;2023-05-19T04:45:34;5.20;;;3.63;;
33862;SDS011;20158;51.436;-2.742;2023-05-19T04:48:03;6.78;;;4.65;;
33862;SDS011;20158;51.436;-2.742;2023-05-19T04:50:29;4.55;;;3.70;;
33862;SDS011;20158;51.436;-2.742;2023-05-19T04:52:56;4.65;;;3.45;;
33862;SDS011;20158;51.436;-2.742;2023-05-19T04:55:24;3.95;;;3.55;;
33862;SDS011;20158;51.436;-2.742;2023-05-19T04:57:50;4.57;;;3.17;;
33862;SDS011;20158;51.436;-2.742;2023-05-19T05:00:18;8.63;;;3.83;;
33862;SDS011;20158;51.436;-2.742;2023-05-19T05:02:52;3.78;;;3.40;;
33862;SDS011;20158;51.436;-2.742;2023-05-19T05:05:21;4.15;;;3.65;;
33862;SDS011;20158;51.436;-2.742;2023-05-19T05:07:49;4.28;;;3.00;;
33862;SDS011;20158;51.436;-2.742;2023-05-19T05:10:16;3.80;;;2.83;;
33862;SDS011;20158;51.436;-2.742;2023-05-19T05:12:42;5.13;;;3.67;;
33862;SDS011;20158;51.436;-2.742;2023-05-19T05:15:08;3.67;;;3.10;;
33862;SDS011;20158;51.436;-2.742;2023-05-19T05:17:37;3.10;;;2.78;;
33862;SDS011;20158;51.436;-2.742;2023-05-19T05:20:03;3.55;;;2.95;;
33862;SDS011;20158;51.436;-2.742;2023-05-19T05:22:31;4.07;;;3.53;;
33862;SDS011;20158;51.436;-2.742;2023-05-19T05:24:58;4.68;;;3.58;;
33862;SDS011;20158;51.436;-2.742;2023-05-19T05:27:24;4.95;;;3.08;;
33862;SDS011;20158;51.436;-2.742;2023-05-19T05:29:51;5.47;;;3.55;;
33862;SDS011;20158;51.436;-2.742;2023-05-19T05:32:18;3.45;;;3.15;;
33862;SDS011;20158;51.436;-2.742;2023-05-19T05:34:44;4.05;;;3.03;;
33862;SDS011;20158;51.436;-2.742;2023-05-19T05:37:11;4.25;;;3.20;;
33862;SDS011;20158;51.436;-2.742;2023-05-19T05:39:37;6.43;;;3.72;;
33862;SDS011;20158;51.436;-2.742;2023-05-19T05:42:03;6.13;;;4.38;;
33862;SDS011;20158;51.436;-2.742;2023-05-19T05:44:29;3.70;;;3.40;;
33862;SDS011;20158;51.436;-2.742;2023-05-19T05:46:56;5.30;;;3.75;;
33862;SDS011;20158;51.436;-2.742;2023-05-19T05:49:23;4.93;;;3.58;;
33862;SDS011;20158;51.436;-2.742;2023-05-19T05:51:49;6.68;;;3.92;;
33862;SDS011;20158;51.436;-2.742;2023-05-19T05:54:17;4.97;;;4.20;;
33862;SDS011;20158;51.436;-2.742;2023-05-19T05:56:45;5.95;;;3.65;;
33862;SDS011;20158;51.436;-2.742;2023-05-19T05:59:14;5.60;;;4.05;;
33862;SDS011;20158;51.436;-2.742;2023-05-19T06:01:40;6.55;;;3.97;;
33862;SDS011;20158;51.436;-2.742;2023-05-19T06:04:09;4.18;;;3.50;;
33862;SDS011;20158;51.436;-2.742;2023-05-19T06:06:35;4.80;;;4.00;;
33862;SDS011;20158;51.436;-2.742;2023-05-19T06:09:03;6.03;;;3.92;;
33862;SDS011;20158;51.436;-2.742;2023-05-19T06:11:29;5.05;;;4.00;;
33862;SDS011;20158;51.436;-2.742;2023-05-19T06:13:57;5.28;;;3.50;;
33862;SDS011;20158;51.436;-2.742;2023-05-19T06:16:53;3.92;;;3.42;;
33862;SDS011;20158;51.436;-2.742;2023-05-19T06:19:20;4.40;;;3.80;;
33862;SDS011;20158;51.436;-2.742;2023-05-19T06:21:46;5.93;;;4.40;;
33862;SDS011;20158;51.436;-2.742;2023-05-19T06:24:14;4.78;;;3.50;;
33862;SDS011;20158;51.436;-2.742;2023-05-19T06:26:40;5.20;;;3.80;;
33862;SDS011;20158;51.436;-2.742;2023-05-19T06:29:06;4.75;;;3.50;;
33862;SDS011;20158;51.436;-2.742;2023-05-19T06:31:32;5.57;;;4.07;;
33862;SDS011;20158;51.436;-2.742;2023-05-19T06:34:06;5.78;;;4.63;;
33862;SDS011;20158;51.436;-2.742;2023-05-19T06:36:34;5.43;;;3.80;;
33862;SDS011;20158;51.436;-2.742;2023-05-19T06:39:01;5.65;;;3.63;;
33862;SDS011;20158;51.436;-2.742;2023-05-19T06:41:28;5.07;;;3.40;;
33862;SDS011;20158;51.436;-2.742;2023-05-19T06:43:54;4.38;;;3.58;;
33862;SDS011;20158;51.436;-2.742;2023-05-19T06:46:21;5.18;;;3.83;;
33862;SDS011;20158;51.436;-2.742;2023-05-19T06:48:46;4.03;;;3.60;;
33862;SDS011;20158;51.436;-2.742;2023-05-19T06:51:14;6.63;;;5.03;;
33862;SDS011;20158;51.436;-2.742;2023-05-19T06:53:47;7.07;;;4.28;;
33862;SDS011;20158;51.436;-2.742;2023-05-19T06:56:13;5.55;;;3.83;;
33862;SDS011;20158;51.436;-2.742;2023-05-19T06:58:40;5.22;;;3.83;;
33862;SDS011;20158;51.436;-2.742;2023-05-19T07:01:06;3.85;;;3.55;;
33862;SDS011;20158;51.436;-2.742;2023-05-19T07:03:40;8.93;;;3.90;;
33862;SDS011;20158;51.436;-2.742;2023-05-19T07:06:07;7.05;;;3.80;;
33862;SDS011;20158;51.436;-2.742;2023-05-19T07:08:33;4.45;;;3.90;;
33862;SDS011;20158;51.436;-2.742;2023-05-19T07:11:02;6.30;;;3.97;;
33862;SDS011;20158;51.436;-2.742;2023-05-19T07:13:29;6.32;;;3.35;;
33862;SDS011;20158;51.436;-2.742;2023-05-19T07:15:57;4.63;;;4.18;;
33862;SDS011;20158;51.436;-2.742;2023-05-19T07:18:24;4.90;;;3.53;;
33862;SDS011;20158;51.436;-2.742;2023-05-19T07:20:51;7.68;;;3.95;;
33862;SDS011;20158;51.436;-2.742;2023-05-19T07:23:19;4.65;;;4.05;;
33862;SDS011;20158;51.436;-2.742;2023-05-19T07:25:45;8.13;;;3.50;;
33862;SDS011;20158;51.436;-2.742;2023-05-19T07:28:11;5.85;;;3.90;;
33862;SDS011;20158;51.436;-2.742;2023-05-19T07:30:37;5.78;;;3.72;;
33862;SDS011;20158;51.436;-2.742;2023-05-19T07:33:03;4.70;;;4.10;;
33862;SDS011;20158;51.436;-2.742;2023-05-19T07:35:30;6.72;;;3.47;;
33862;SDS011;20158;51.436;-2.742;2023-05-19T07:37:59;6.20;;;4.15;;
33862;SDS011;20158;51.436;-2.742;2023-05-19T07:40:25;6.20;;;3.28;;
33862;SDS011;20158;51.436;-2.742;2023-05-19T07:42:51;4.80;;;3.53;;
33862;SDS011;20158;51.436;-2.742;2023-05-19T07:45:17;7.63;;;3.90;;
33862;SDS011;20158;51.436;-2.742;2023-05-19T07:47:42;4.95;;;3.60;;
33862;SDS011;20158;51.436;-2.742;2023-05-19T07:50:08;5.28;;;3.70;;
33862;SDS011;20158;51.436;-2.742;2023-05-19T07:52:35;3.53;;;3.22;;
33862;SDS011;20158;51.436;-2.742;2023-05-19T07:55:01;6.22;;;3.00;;
33862;SDS011;20158;51.436;-2.742;2023-05-19T07:57:27;3.40;;;2.88;;
33862;SDS011;20158;51.436;-2.742;2023-05-19T07:59:53;6.68;;;3.60;;
33862;SDS011;20158;51.436;-2.742;2023-05-19T08:02:19;5.13;;;3.47;;
33862;SDS011;20158;51.436;-2.742;2023-05-19T08:04:45;4.88;;;3.25;;
33862;SDS011;20158;51.436;-2.742;2023-05-19T08:07:12;4.72;;;3.40;;
33862;SDS011;20158;51.436;-2.742;2023-05-19T08:09:38;4.47;;;3.17;;
33862;SDS011;20158;51.436;-2.742;2023-05-19T08:12:04;4.78;;;2.58;;
33862;SDS011;20158;51.436;-2.742;2023-05-19T08:14:30;7.00;;;3.03;;
33862;SDS011;20158;51.436;-2.742;2023-05-19T08:16:57;7.47;;;2.97;;
33862;SDS011;20158;51.436;-2.742;2023-05-19T08:19:23;4.22;;;3.40;;
33862;SDS011;20158;51.436;-2.742;2023-05-19T08:21:49;7.20;;;3.25;;
33862;SDS011;20158;51.436;-2.742;2023-05-19T08:24:15;5.05;;;3.22;;
33862;SDS011;20158;51.436;-2.742;2023-05-19T08:26:42;5.78;;;3.60;;
33862;SDS011;20158;51.436;-2.742;2023-05-19T08:29:08;5.47;;;3.10;;
33862;SDS011;20158;51.436;-2.742;2023-05-19T08:31:34;5.18;;;2.78;;
33862;SDS011;20158;51.436;-2.742;2023-05-19T08:34:00;4.32;;;2.97;;
33862;SDS011;20158;51.436;-2.742;2023-05-19T08:36:26;4.75;;;3.08;;
33862;SDS011;20158;51.436;-2.742;2023-05-19T08:38:52;4.72;;;3.83;;
33862;SDS011;20158;51.436;-2.742;2023-05-19T08:41:18;3.85;;;3.17;;
33862;SDS011;20158;51.436;-2.742;2023-05-19T08:43:45;6.22;;;3.72;;
33862;SDS011;20158;51.436;-2.742;2023-05-19T08:46:12;7.40;;;3.15;;
33862;SDS011;20158;51.436;-2.742;2023-05-19T08:48:41;4.00;;;2.72;;
33862;SDS011;20158;51.436;-2.742;2023-05-19T08:51:16;4.97;;;2.95;;
33862;SDS011;20158;51.436;-2.742;2023-05-19T08:54:05;4.22;;;3.38;;
33862;SDS011;20158;51.436;-2.742;2023-05-19T08:56:38;6.38;;;3.10;;
33862;SDS011;20158;51.436;-2.742;2023-05-19T08:59:06;3.88;;;2.80;;
33862;SDS011;20158;51.436;-2.742;2023-05-19T09:01:32;3.42;;;2.90;;
33862;SDS011;20158;51.436;-2.742;2023-05-19T09:03:59;3.28;;;2.58;;
33862;SDS011;20158;51.436;-2.742;2023-05-19T09:06:25;3.33;;;2.55;;
33862;SDS011;20158;51.436;-2.742;2023-05-19T09:08:54;3.38;;;2.45;;
33862;SDS011;20158;51.436;-2.742;2023-05-19T09:11:20;5.75;;;3.20;;
33862;SDS011;20158;51.436;-2.742;2023-05-19T09:13:47;2.90;;;2.40;;
33862;SDS011;20158;51.436;-2.742;2023-05-19T09:16:14;5.53;;;3.10;;
33862;SDS011;20158;51.436;-2.742;2023-05-19T09:18:42;3.60;;;2.90;;
33862;SDS011;20158;51.436;-2.742;2023-05-19T09:21:25;3.22;;;2.50;;
33862;SDS011;20158;51.436;-2.742;2023-05-19T09:23:55;4.43;;;2.70;;
33862;SDS011;20158;51.436;-2.742;2023-05-19T09:26:23;3.83;;;3.13;;
33862;SDS011;20158;51.436;-2.742;2023-05-19T09:28:49;4.35;;;3.05;;
33862;SDS011;20158;51.436;-2.742;2023-05-19T09:31:15;5.55;;;2.50;;
33862;SDS011;20158;51.436;-2.742;2023-05-19T09:33:41;3.47;;;2.72;;
33862;SDS011;20158;51.436;-2.742;2023-05-19T09:36:08;7.63;;;3.90;;
33862;SDS011;20158;51.436;-2.742;2023-05-19T09:38:35;4.25;;;2.97;;
33862;SDS011;20158;51.436;-2.742;2023-05-19T09:41:03;3.72;;;2.65;;
33862;SDS011;20158;51.436;-2.742;2023-05-19T09:43:31;3.65;;;2.53;;
33862;SDS011;20158;51.436;-2.742;2023-05-19T09:46:04;4.97;;;3.05;;
33862;SDS011;20158;51.436;-2.742;2023-05-19T09:48:32;3.53;;;2.80;;
33862;SDS011;20158;51.436;-2.742;2023-05-19T09:50:59;4.70;;;3.10;;
33862;SDS011;20158;51.436;-2.742;2023-05-19T09:53:27;5.28;;;2.75;;
33862;SDS011;20158;51.436;-2.742;2023-05-19T09:55:55;4.30;;;3.10;;
33862;SDS011;20158;51.436;-2.742;2023-05-19T09:58:24;3.22;;;2.92;;
33862;SDS011;20158;51.436;-2.742;2023-05-19T10:00:51;4.05;;;2.70;;
33862;SDS011;20158;51.436;-2.742;2023-05-19T10:03:21;3.25;;;2.50;;
33862;SDS011;20158;51.436;-2.742;2023-05-19T10:05:48;3.25;;;2.85;;
33862;SDS011;20158;51.436;-2.742;2023-05-19T10:08:15;4.82;;;3.33;;
33862;SDS011;20158;51.436;-2.742;2023-05-19T10:10:42;3.13;;;2.65;;
33862;SDS011;20158;51.436;-2.742;2023-05-19T10:13:11;3.67;;;2.55;;
33862;SDS011;20158;51.436;-2.742;2023-05-19T10:15:39;3.15;;;2.28;;
33862;SDS011;20158;51.436;-2.742;2023-05-19T10:18:10;3.63;;;2.35;;
33862;SDS011;20158;51.436;-2.742;2023-05-19T10:20:37;3.55;;;3.03;;
33862;SDS011;20158;51.436;-2.742;2023-05-19T10:23:04;2.83;;;2.58;;
33862;SDS011;20158;51.436;-2.742;2023-05-19T10:25:31;2.92;;;2.47;;
33862;SDS011;20158;51.436;-2.742;2023-05-19T10:28:00;2.90;;;2.22;;
33862;SDS011;20158;51.436;-2.742;2023-05-19T10:30:32;2.28;;;2.00;;
33862;SDS011;20158;51.436;-2.742;2023-05-19T10:33:02;3.22;;;2.35;;
33862;SDS011;20158;51.436;-2.742;2023-05-19T10:35:35;4.03;;;2.40;;
33862;SDS011;20158;51.436;-2.742;2023-05-19T10:44:12;3.20;;;2.03;;
33862;SDS011;20158;51.436;-2.742;2023-05-19T10:49:20;2.20;;;2.00;;
33862;SDS011;20158;51.436;-2.742;2023-05-19T10:51:50;3.72;;;2.60;;
33862;SDS011;20158;51.436;-2.742;2023-05-19T10:54:37;3.95;;;2.53;;
33862;SDS011;20158;51.436;-2.742;2023-05-19T10:57:05;3.22;;;2.35;;
33862;SDS011;20158;51.436;-2.742;2023-05-19T10:59:34;3.53;;;2.17;;
33862;SDS011;20158;51.436;-2.742;2023-05-19T11:02:05;3.05;;;2.40;;
33862;SDS011;20158;51.436;-2.742;2023-05-19T11:04:38;4.57;;;2.90;;
33862;SDS011;20158;51.436;-2.742;2023-05-19T11:07:14;2.97;;;2.58;;
33862;SDS011;20158;51.436;-2.742;2023-05-19T11:09:51;3.50;;;2.67;;
33862;SDS011;20158;51.436;-2.742;2023-05-19T11:12:20;3.42;;;2.10;;
33862;SDS011;20158;51.436;-2.742;2023-05-19T11:14:51;3.55;;;2.47;;
33862;SDS011;20158;51.436;-2.742;2023-05-19T11:17:18;5.28;;;3.03;;
33862;SDS011;20158;51.436;-2.742;2023-05-19T11:19:51;3.08;;;2.42;;
33862;SDS011;20158;51.436;-2.742;2023-05-19T11:22:23;4.50;;;2.60;;
33862;SDS011;20158;51.436;-2.742;2023-05-19T11:24:50;3.15;;;2.55;;
33862;SDS011;20158;51.436;-2.742;2023-05-19T11:27:28;2.15;;;1.90;;
33862;SDS011;20158;51.436;-2.742;2023-05-19T11:32:32;4.60;;;2.47;;
33862;SDS011;20158;51.436;-2.742;2023-05-19T11:35:00;3.63;;;2.63;;
33862;SDS011;20158;51.436;-2.742;2023-05-19T11:37:32;3.88;;;2.97;;
33862;SDS011;20158;51.436;-2.742;2023-05-19T11:40:00;5.07;;;2.85;;
33862;SDS011;20158;51.436;-2.742;2023-05-19T11:42:30;3.00;;;2.72;;
33862;SDS011;20158;51.436;-2.742;2023-05-19T11:44:59;4.97;;;2.90;;
33862;SDS011;20158;51.436;-2.742;2023-05-19T11:47:25;3.85;;;2.78;;
33862;SDS011;20158;51.436;-2.742;2023-05-19T11:49:53;2.50;;;2.30;;
33862;SDS011;20158;51.436;-2.742;2023-05-19T11:52:21;3.50;;;2.58;;
33862;SDS011;20158;51.436;-2.742;2023-05-19T11:54:51;4.05;;;2.65;;
33862;SDS011;20158;51.436;-2.742;2023-05-19T11:57:18;2.95;;;2.65;;
33862;SDS011;20158;51.436;-2.742;2023-05-19T11:59:44;4.25;;;2.60;;
33862;SDS011;20158;51.436;-2.742;2023-05-19T12:02:19;5.15;;;3.13;;
33862;SDS011;20158;51.436;-2.742;2023-05-19T12:04:53;4.32;;;3.10;;
33862;SDS011;20158;51.436;-2.742;2023-05-19T12:07:22;3.13;;;2.83;;
33862;SDS011;20158;51.436;-2.742;2023-05-19T12:09:49;3.53;;;2.70;;
33862;SDS011;20158;51.436;-2.742;2023-05-19T12:12:16;3.72;;;2.47;;
33862;SDS011;20158;51.436;-2.742;2023-05-19T12:14:45;2.40;;;2.20;;
33862;SDS011;20158;51.436;-2.742;2023-05-19T12:17:12;2.60;;;2.30;;
33862;SDS011;20158;51.436;-2.742;2023-05-19T12:19:40;4.07;;;2.70;;
33862;SDS011;20158;51.436;-2.742;2023-05-19T12:22:08;2.45;;;2.25;;
33862;SDS011;20158;51.436;-2.742;2023-05-19T12:24:34;3.53;;;2.53;;
33862;SDS011;20158;51.436;-2.742;2023-05-19T12:27:05;2.63;;;2.25;;
33862;SDS011;20158;51.436;-2.742;2023-05-19T12:29:38;2.78;;;2.17;;
33862;SDS011;20158;51.436;-2.742;2023-05-19T12:32:06;3.55;;;2.72;;
33862;SDS011;20158;51.436;-2.742;2023-05-19T12:34:34;3.03;;;2.40;;
33862;SDS011;20158;51.436;-2.742;2023-05-19T12:37:03;2.28;;;2.08;;
33862;SDS011;20158;51.436;-2.742;2023-05-19T12:39:30;2.75;;;2.22;;
33862;SDS011;20158;51.436;-2.742;2023-05-19T12:42:00;2.40;;;2.20;;
33862;SDS011;20158;51.436;-2.742;2023-05-19T12:44:42;3.10;;;2.20;;
33862;SDS011;20158;51.436;-2.742;2023-05-19T12:47:12;4.63;;;2.47;;
33862;SDS011;20158;51.436;-2.742;2023-05-19T12:49:52;2.40;;;2.20;;
33862;SDS011;20158;51.436;-2.742;2023-05-19T12:52:20;1.90;;;1.80;;
33862;SDS011;20158;51.436;-2.742;2023-05-19T12:54:49;2.38;;;2.15;;
33862;SDS011;20158;51.436;-2.742;2023-05-19T12:57:37;2.35;;;1.65;;
33862;SDS011;20158;51.436;-2.742;2023-05-19T13:00:06;2.58;;;1.98;;
33862;SDS011;20158;51.436;-2.742;2023-05-19T13:08:09;3.00;;;2.05;;
33862;SDS011;20158;51.436;-2.742;2023-05-19T13:10:36;3.25;;;2.20;;
33862;SDS011;20158;51.436;-2.742;2023-05-19T13:13:04;4.13;;;2.47;;
33862;SDS011;20158;51.436;-2.742;2023-05-19T13:15:32;2.85;;;2.38;;
33862;SDS011;20158;51.436;-2.742;2023-05-19T13:18:00;3.13;;;2.15;;
33862;SDS011;20158;51.436;-2.742;2023-05-19T13:20:27;3.80;;;2.72;;
33862;SDS011;20158;51.436;-2.742;2023-05-19T13:22:53;2.20;;;2.00;;
33862;SDS011;20158;51.436;-2.742;2023-05-19T13:25:20;2.92;;;2.22;;
33862;SDS011;20158;51.436;-2.742;2023-05-19T13:27:46;3.20;;;2.53;;
33862;SDS011;20158;51.436;-2.742;2023-05-19T13:30:13;2.20;;;2.00;;
33862;SDS011;20158;51.436;-2.742;2023-05-19T13:32:43;2.90;;;2.08;;
33862;SDS011;20158;51.436;-2.742;2023-05-19T13:35:11;2.75;;;1.98;;
33862;SDS011;20158;51.436;-2.742;2023-05-19T13:37:38;3.15;;;1.77;;
33862;SDS011;20158;51.436;-2.742;2023-05-19T13:40:04;3.28;;;2.03;;
33862;SDS011;20158;51.436;-2.742;2023-05-19T13:42:31;2.50;;;2.08;;
33862;SDS011;20158;51.436;-2.742;2023-05-19T13:44:58;3.97;;;2.00;;
33862;SDS011;20158;51.436;-2.742;2023-05-19T13:47:24;4.43;;;2.13;;
33862;SDS011;20158;51.436;-2.742;2023-05-19T13:49:50;2.00;;;1.70;;
33862;SDS011;20158;51.436;-2.742;2023-05-19T13:52:16;2.20;;;1.98;;
33862;SDS011;20158;51.436;-2.742;2023-05-19T13:54:43;2.45;;;2.25;;
33862;SDS011;20158;51.436;-2.742;2023-05-19T13:57:10;2.50;;;1.83;;
33862;SDS011;20158;51.436;-2.742;2023-05-19T13:59:36;2.80;;;2.33;;
33862;SDS011;20158;51.436;-2.742;2023-05-19T14:02:02;2.80;;;2.10;;
33862;SDS011;20158;51.436;-2.742;2023-05-19T14:04:29;4.45;;;2.42;;
33862;SDS011;20158;51.436;-2.742;2023-05-19T14:06:56;4.00;;;2.92;;
33862;SDS011;20158;51.436;-2.742;2023-05-19T14:09:22;3.10;;;2.00;;
33862;SDS011;20158;51.436;-2.742;2023-05-19T14:11:49;5.35;;;2.00;;
33862;SDS011;20158;51.436;-2.742;2023-05-19T14:14:14;3.80;;;2.17;;
33862;SDS011;20158;51.436;-2.742;2023-05-19T14:16:41;3.35;;;2.40;;
33862;SDS011;20158;51.436;-2.742;2023-05-19T14:19:07;2.40;;;2.03;;
33862;SDS011;20158;51.436;-2.742;2023-05-19T14:21:34;2.35;;;2.15;;
33862;SDS011;20158;51.436;-2.742;2023-05-19T14:24:01;4.50;;;2.45;;
33862;SDS011;20158;51.436;-2.742;2023-05-19T14:26:26;3.38;;;2.35;;
33862;SDS011;20158;51.436;-2.742;2023-05-19T14:28:52;3.00;;;2.05;;
33862;SDS011;20158;51.436;-2.742;2023-05-19T14:31:18;3.47;;;2.30;;
33862;SDS011;20158;51.436;-2.742;2023-05-19T14:33:44;2.53;;;2.10;;
33862;SDS011;20158;51.436;-2.742;2023-05-19T14:36:10;3.20;;;2.10;;
33862;SDS011;20158;51.436;-2.742;2023-05-19T14:38:36;2.58;;;2.38;;
33862;SDS011;20158;51.436;-2.742;2023-05-19T14:41:02;2.38;;;2.03;;
33862;SDS011;20158;51.436;-2.742;2023-05-19T14:43:28;2.15;;;1.92;;
33862;SDS011;20158;51.436;-2.742;2023-05-19T14:45:55;1.77;;;1.67;;
33862;SDS011;20158;51.436;-2.742;2023-05-19T14:48:21;2.53;;;2.08;;
33862;SDS011;20158;51.436;-2.742;2023-05-19T14:50:47;2.50;;;1.67;;
33862;SDS011;20158;51.436;-2.742;2023-05-19T14:53:13;2.35;;;1.55;;
33862;SDS011;20158;51.436;-2.742;2023-05-19T14:55:40;1.30;;;1.20;;
33862;SDS011;20158;51.436;-2.742;2023-05-19T14:58:06;1.90;;;1.70;;
33862;SDS011;20158;51.436;-2.742;2023-05-19T15:00:32;2.03;;;1.48;;
33862;SDS011;20158;51.436;-2.742;2023-05-19T15:02:58;1.60;;;1.50;;
33862;SDS011;20158;51.436;-2.742;2023-05-19T15:05:24;2.03;;;1.63;;
33862;SDS011;20158;51.436;-2.742;2023-05-19T15:07:50;1.60;;;1.50;;
33862;SDS011;20158;51.436;-2.742;2023-05-19T15:10:16;2.42;;;1.42;;
33862;SDS011;20158;51.436;-2.742;2023-05-19T15:12:45;3.88;;;1.80;;
33862;SDS011;20158;51.436;-2.742;2023-05-19T15:15:13;1.58;;;1.48;;